sensor_id;sensor_type;location;lat;lon;timestamp;pressure;altitude;pressure_sealevel;temperature
64296;BMP280;51082;38.236;15.432;2022-09-09T00:01:01;101286.16;;;28.34
64296;BMP280;51082;38.236;15.432;2022-09-09T00:02:10;101289.63;;;28.35
64296;BMP280;51082;38.236;15.432;2022-09-09T00:03:24;101281.41;;;28.31
64296;BMP280;51082;38.236;15.432;2022-09-09T00:04:28;101288.47;;;28.27
64296;BMP280;51082;38.236;15.432;2022-09-09T00:05:36;101287.97;;;28.25
64296;BMP280;51082;38.236;15.432;2022-09-09T00:06:45;101289.69;;;28.21
64296;BMP280;51082;38.236;15.432;2022-09-09T00:07:50;101282.44;;;28.22
64296;BMP280;51082;38.236;15.432;2022-09-09T00:09:00;101284.03;;;28.09
64296;BMP280;51082;38.236;15.432;2022-09-09T00:10:15;101273.94;;;28.06
64296;BMP280;51082;38.236;15.432;2022-09-09T00:11:21;101279.41;;;28.01
64296;BMP280;51082;38.236;15.432;2022-09-09T00:12:34;101278.91;;;27.99
64296;BMP280;51082;38.236;15.432;2022-09-09T00:13:42;101270.88;;;27.99
64296;BMP280;51082;38.236;15.432;2022-09-09T00:14:52;101272.34;;;28.05
64296;BMP280;51082;38.236;15.432;2022-09-09T00:15:59;101274.03;;;28.01
64296;BMP280;51082;38.236;15.432;2022-09-09T00:17:06;101266.59;;;27.98
64296;BMP280;51082;38.236;15.432;2022-09-09T00:18:17;101270.41;;;27.97
64296;BMP280;51082;38.236;15.432;2022-09-09T00:19:28;101267.19;;;27.95
64296;BMP280;51082;38.236;15.432;2022-09-09T00:20:35;101264.50;;;27.95
64296;BMP280;51082;38.236;15.432;2022-09-09T00:22:00;101259.78;;;27.92
64296;BMP280;51082;38.236;15.432;2022-09-09T00:23:11;101260.28;;;27.94
64296;BMP280;51082;38.236;15.432;2022-09-09T00:24:22;101254.72;;;27.90
64296;BMP280;51082;38.236;15.432;2022-09-09T00:25:33;101258.69;;;27.93
64296;BMP280;51082;38.236;15.432;2022-09-09T00:26:38;101254.72;;;27.90
64296;BMP280;51082;38.236;15.432;2022-09-09T00:27:45;101247.56;;;27.86
64296;BMP280;51082;38.236;15.432;2022-09-09T00:28:52;101259.06;;;27.86
64296;BMP280;51082;38.236;15.432;2022-09-09T00:30:12;101252.94;;;27.86
64296;BMP280;51082;38.236;15.432;2022-09-09T00:31:19;101255.59;;;27.86
64296;BMP280;51082;38.236;15.432;2022-09-09T00:32:28;101251.53;;;27.88
64296;BMP280;51082;38.236;15.432;2022-09-09T00:33:31;101253.44;;;27.88
64296;BMP280;51082;38.236;15.432;2022-09-09T00:34:34;101249.97;;;27.87
64296;BMP280;51082;38.236;15.432;2022-09-09T00:35:38;101256.13;;;27.88
64296;BMP280;51082;38.236;15.432;2022-09-09T00:36:42;101251.38;;;27.85
64296;BMP280;51082;38.236;15.432;2022-09-09T00:37:46;101249.28;;;27.82
64296;BMP280;51082;38.236;15.432;2022-09-09T00:38:53;101244.22;;;27.80
64296;BMP280;51082;38.236;15.432;2022-09-09T00:39:59;101247.38;;;27.82
64296;BMP280;51082;38.236;15.432;2022-09-09T00:41:10;101250.84;;;27.83
64296;BMP280;51082;38.236;15.432;2022-09-09T00:42:13;101254.50;;;27.87
64296;BMP280;51082;38.236;15.432;2022-09-09T00:43:26;101251.97;;;27.82
64296;BMP280;51082;38.236;15.432;2022-09-09T00:44:31;101244.50;;;27.79
64296;BMP280;51082;38.236;15.432;2022-09-09T00:47:27;101241.44;;;27.85
64296;BMP280;51082;38.236;15.432;2022-09-09T00:48:39;101242.34;;;27.81
64296;BMP280;51082;38.236;15.432;2022-09-09T00:49:53;101247.56;;;27.86
64296;BMP280;51082;38.236;15.432;2022-09-09T00:51:03;101238.94;;;27.89
64296;BMP280;51082;38.236;15.432;2022-09-09T00:52:19;101229.72;;;27.95
64296;BMP280;51082;38.236;15.432;2022-09-09T00:53:32;101234.47;;;27.98
64296;BMP280;51082;38.236;15.432;2022-09-09T00:54:45;101234.47;;;27.98
64296;BMP280;51082;38.236;15.432;2022-09-09T00:55:56;101230.72;;;27.99
64296;BMP280;51082;38.236;15.432;2022-09-09T00:57:13;101225.94;;;27.96
64296;BMP280;51082;38.236;15.432;2022-09-09T00:58:21;101228.75;;;27.91
64296;BMP280;51082;38.236;15.432;2022-09-09T00:59:28;101226.06;;;27.91
64296;BMP280;51082;38.236;15.432;2022-09-09T01:00:42;101230.34;;;27.92
64296;BMP280;51082;38.236;15.432;2022-09-09T01:01:45;101224.34;;;27.95
64296;BMP280;51082;38.236;15.432;2022-09-09T01:02:53;101222.00;;;27.93
64296;BMP280;51082;38.236;15.432;2022-09-09T01:04:00;101225.94;;;27.96
64296;BMP280;51082;38.236;15.432;2022-09-09T01:05:07;101222.88;;;28.02
64296;BMP280;51082;38.236;15.432;2022-09-09T01:06:16;101221.59;;;28.00
64296;BMP280;51082;38.236;15.432;2022-09-09T01:07:20;101221.75;;;28.03
64296;BMP280;51082;38.236;15.432;2022-09-09T01:08:39;101216.72;;;28.02
64296;BMP280;51082;38.236;15.432;2022-09-09T01:09:51;101212.56;;;27.96
64296;BMP280;51082;38.236;15.432;2022-09-09T01:10:54;101214.28;;;27.92
64296;BMP280;51082;38.236;15.432;2022-09-09T01:12:07;101219.41;;;27.88
64296;BMP280;51082;38.236;15.432;2022-09-09T01:13:17;101212.78;;;27.86
64296;BMP280;51082;38.236;15.432;2022-09-09T01:14:30;101201.97;;;27.91
64296;BMP280;51082;38.236;15.432;2022-09-09T01:15:34;101211.50;;;27.97
64296;BMP280;51082;38.236;15.432;2022-09-09T01:16:37;101213.66;;;27.95
64296;BMP280;51082;38.236;15.432;2022-09-09T01:17:50;101212.09;;;27.94
64296;BMP280;51082;38.236;15.432;2022-09-09T01:18:54;101212.19;;;27.89
64296;BMP280;51082;38.236;15.432;2022-09-09T01:20:05;101212.97;;;27.89
64296;BMP280;51082;38.236;15.432;2022-09-09T01:21:17;101212.25;;;27.97
64296;BMP280;51082;38.236;15.432;2022-09-09T01:22:28;101212.47;;;28.01
64296;BMP280;51082;38.236;15.432;2022-09-09T01:23:42;101214.53;;;28.04
64296;BMP280;51082;38.236;15.432;2022-09-09T01:25:06;101212.47;;;28.01
64296;BMP280;51082;38.236;15.432;2022-09-09T01:26:23;101220.00;;;27.99
64296;BMP280;51082;38.236;15.432;2022-09-09T01:27:28;101216.53;;;27.98
64296;BMP280;51082;38.236;15.432;2022-09-09T01:28:30;101215.13;;;28.01
64296;BMP280;51082;38.236;15.432;2022-09-09T01:29:34;101210.16;;;28.08
64296;BMP280;51082;38.236;15.432;2022-09-09T01:30:38;101209.69;;;28.06
64296;BMP280;51082;38.236;15.432;2022-09-09T01:31:51;101209.69;;;28.06
64296;BMP280;51082;38.236;15.432;2022-09-09T01:32:55;101217.81;;;28.01
64296;BMP280;51082;38.236;15.432;2022-09-09T01:33:59;101207.69;;;27.98
64296;BMP280;51082;38.236;15.432;2022-09-09T01:35:01;101218.41;;;27.98
64296;BMP280;51082;38.236;15.432;2022-09-09T01:36:07;101210.38;;;27.98
64296;BMP280;51082;38.236;15.432;2022-09-09T01:37:10;101214.53;;;28.04
64296;BMP280;51082;38.236;15.432;2022-09-09T01:38:14;101211.75;;;28.09
64296;BMP280;51082;38.236;15.432;2022-09-09T01:39:17;101220.06;;;28.07
64296;BMP280;51082;38.236;15.432;2022-09-09T01:40:20;101215.63;;;28.03
64296;BMP280;51082;38.236;15.432;2022-09-09T01:41:23;101218.31;;;28.03
64296;BMP280;51082;38.236;15.432;2022-09-09T01:42:26;101223.19;;;28.01
64296;BMP280;51082;38.236;15.432;2022-09-09T01:43:28;101216.41;;;28.03
64296;BMP280;51082;38.236;15.432;2022-09-09T01:44:31;101217.53;;;28.02
64296;BMP280;51082;38.236;15.432;2022-09-09T01:45:33;101219.88;;;28.04
64296;BMP280;51082;38.236;15.432;2022-09-09T01:46:36;101221.00;;;28.03
64296;BMP280;51082;38.236;15.432;2022-09-09T01:47:38;101223.19;;;28.01
64296;BMP280;51082;38.236;15.432;2022-09-09T01:48:41;101223.66;;;28.03
64296;BMP280;51082;38.236;15.432;2022-09-09T01:49:43;101219.88;;;28.04
64296;BMP280;51082;38.236;15.432;2022-09-09T01:50:46;101219.66;;;28.00
64296;BMP280;51082;38.236;15.432;2022-09-09T01:51:51;101219.41;;;28.02
64296;BMP280;51082;38.236;15.432;2022-09-09T01:52:57;101221.28;;;28.01
64296;BMP280;51082;38.236;15.432;2022-09-09T01:53:59;101222.56;;;28.04
64296;BMP280;51082;38.236;15.432;2022-09-09T01:55:03;101225.22;;;28.04
64296;BMP280;51082;38.236;15.432;2022-09-09T01:56:17;101220.66;;;28.04
64296;BMP280;51082;38.236;15.432;2022-09-09T01:57:27;101216.41;;;28.03
64296;BMP280;51082;38.236;15.432;2022-09-09T01:58:38;101220.00;;;27.99
64296;BMP280;51082;38.236;15.432;2022-09-09T02:00:00;101222.69;;;27.99
64296;BMP280;51082;38.236;15.432;2022-09-09T02:01:06;101232.00;;;28.01
64296;BMP280;51082;38.236;15.432;2022-09-09T02:02:11;101227.91;;;28.04
64296;BMP280;51082;38.236;15.432;2022-09-09T02:03:20;101229.50;;;28.05
64296;BMP280;51082;38.236;15.432;2022-09-09T02:04:27;101234.84;;;28.05
64296;BMP280;51082;38.236;15.432;2022-09-09T02:05:36;101236.72;;;28.04
64296;BMP280;51082;38.236;15.432;2022-09-09T02:06:40;101234.69;;;28.01
64296;BMP280;51082;38.236;15.432;2022-09-09T02:07:42;101234.84;;;28.05
64296;BMP280;51082;38.236;15.432;2022-09-09T02:08:49;101238.63;;;28.04
64296;BMP280;51082;38.236;15.432;2022-09-09T02:09:59;101234.06;;;28.04
64296;BMP280;51082;38.236;15.432;2022-09-09T02:11:07;101237.81;;;28.03
64296;BMP280;51082;38.236;15.432;2022-09-09T02:12:14;101237.81;;;28.03
64296;BMP280;51082;38.236;15.432;2022-09-09T02:13:22;101240.31;;;28.00
64296;BMP280;51082;38.236;15.432;2022-09-09T02:14:26;101230.38;;;28.00
64296;BMP280;51082;38.236;15.432;2022-09-09T02:15:34;101228.44;;;28.06
64296;BMP280;51082;38.236;15.432;2022-09-09T02:16:39;101228.91;;;28.08
64296;BMP280;51082;38.236;15.432;2022-09-09T02:17:43;101231.13;;;28.06
64296;BMP280;51082;38.236;15.432;2022-09-09T02:18:50;101227.91;;;28.04
64296;BMP280;51082;38.236;15.432;2022-09-09T02:19:57;101227.72;;;28.00
64296;BMP280;51082;38.236;15.432;2022-09-09T02:21:02;101229.13;;;27.98
64296;BMP280;51082;38.236;15.432;2022-09-09T02:22:05;101226.44;;;27.98
64296;BMP280;51082;38.236;15.432;2022-09-09T02:23:07;101226.94;;;28.00
64296;BMP280;51082;38.236;15.432;2022-09-09T02:24:13;101225.34;;;27.99
64296;BMP280;51082;38.236;15.432;2022-09-09T02:25:17;101235.28;;;27.98
64296;BMP280;51082;38.236;15.432;2022-09-09T02:26:22;101233.06;;;28.00
64296;BMP280;51082;38.236;15.432;2022-09-09T02:27:24;101233.38;;;27.99
64296;BMP280;51082;38.236;15.432;2022-09-09T02:28:30;101233.88;;;28.01
64296;BMP280;51082;38.236;15.432;2022-09-09T02:29:34;101242.22;;;27.99
64296;BMP280;51082;38.236;15.432;2022-09-09T02:30:40;101238.41;;;28.00
64296;BMP280;51082;38.236;15.432;2022-09-09T02:31:44;101240.16;;;27.96
64296;BMP280;51082;38.236;15.432;2022-09-09T02:32:51;101241.53;;;27.94
64296;BMP280;51082;38.236;15.432;2022-09-09T02:33:55;101241.03;;;27.92
64296;BMP280;51082;38.236;15.432;2022-09-09T02:35:03;101238.06;;;27.93
64296;BMP280;51082;38.236;15.432;2022-09-09T02:36:07;101238.38;;;27.92
64296;BMP280;51082;38.236;15.432;2022-09-09T02:37:12;101242.63;;;27.93
64296;BMP280;51082;38.236;15.432;2022-09-09T02:38:15;101248.88;;;27.88
64296;BMP280;51082;38.236;15.432;2022-09-09T02:39:18;101249.16;;;27.87
64296;BMP280;51082;38.236;15.432;2022-09-09T02:40:20;101252.13;;;27.85
64296;BMP280;51082;38.236;15.432;2022-09-09T02:41:27;101251.84;;;27.87
64296;BMP280;51082;38.236;15.432;2022-09-09T02:42:29;101242.44;;;27.89
64296;BMP280;51082;38.236;15.432;2022-09-09T02:43:34;101246.31;;;27.83
64296;BMP280;51082;38.236;15.432;2022-09-09T02:44:36;101238.06;;;27.80
64296;BMP280;51082;38.236;15.432;2022-09-09T02:45:44;101250.16;;;27.77
64296;BMP280;51082;38.236;15.432;2022-09-09T02:47:05;101254.72;;;27.77
64296;BMP280;51082;38.236;15.432;2022-09-09T02:48:14;101250.16;;;27.77
64296;BMP280;51082;38.236;15.432;2022-09-09T02:49:25;101243.44;;;27.80
64296;BMP280;51082;38.236;15.432;2022-09-09T02:50:33;101254.13;;;27.80
64296;BMP280;51082;38.236;15.432;2022-09-09T02:51:42;101248.56;;;27.76
64296;BMP280;51082;38.236;15.432;2022-09-09T02:52:56;101252.63;;;27.73
64296;BMP280;51082;38.236;15.432;2022-09-09T02:54:10;101252.16;;;27.71
64296;BMP280;51082;38.236;15.432;2022-09-09T02:55:17;101247.22;;;27.65
64296;BMP280;51082;38.236;15.432;2022-09-09T02:56:25;101258.72;;;27.65
64296;BMP280;51082;38.236;15.432;2022-09-09T02:57:30;101252.47;;;27.56
64296;BMP280;51082;38.236;15.432;2022-09-09T02:58:36;101246.00;;;27.57
64296;BMP280;51082;38.236;15.432;2022-09-09T02:59:39;101245.03;;;27.53
64296;BMP280;51082;38.236;15.432;2022-09-09T03:00:43;101242.94;;;27.50
64296;BMP280;51082;38.236;15.432;2022-09-09T03:01:45;101250.16;;;27.50
64296;BMP280;51082;38.236;15.432;2022-09-09T03:02:48;101244.31;;;27.48
64296;BMP280;51082;38.236;15.432;2022-09-09T03:03:50;101255.31;;;27.46
64296;BMP280;51082;38.236;15.432;2022-09-09T03:04:53;101251.59;;;27.47
64296;BMP280;51082;38.236;15.432;2022-09-09T03:05:54;101254.94;;;27.53
64296;BMP280;51082;38.236;15.432;2022-09-09T03:06:58;101249.84;;;27.51
64296;BMP280;51082;38.236;15.432;2022-09-09T03:08:00;101246.00;;;27.57
64296;BMP280;51082;38.236;15.432;2022-09-09T03:09:03;101250.47;;;27.48
64296;BMP280;51082;38.236;15.432;2022-09-09T03:10:06;101252.13;;;27.44
64296;BMP280;51082;38.236;15.432;2022-09-09T03:11:09;101249.28;;;27.41
64296;BMP280;51082;38.236;15.432;2022-09-09T03:12:10;101258.06;;;27.41
64296;BMP280;51082;38.236;15.432;2022-09-09T03:13:13;101252.72;;;27.41
64296;BMP280;51082;38.236;15.432;2022-09-09T03:14:18;101253.63;;;27.37
64296;BMP280;51082;38.236;15.432;2022-09-09T03:15:22;101251.75;;;27.37
64296;BMP280;51082;38.236;15.432;2022-09-09T03:16:24;101256.19;;;27.42
64296;BMP280;51082;38.236;15.432;2022-09-09T03:17:26;101255.72;;;27.40
64296;BMP280;51082;38.236;15.432;2022-09-09T03:18:29;101254.91;;;27.39
64296;BMP280;51082;38.236;15.432;2022-09-09T03:19:32;101261.84;;;27.40
64296;BMP280;51082;38.236;15.432;2022-09-09T03:20:34;101258.38;;;27.40
64296;BMP280;51082;38.236;15.432;2022-09-09T03:21:36;101256.00;;;27.38
64296;BMP280;51082;38.236;15.432;2022-09-09T03:22:38;101255.50;;;27.36
64296;BMP280;51082;38.236;15.432;2022-09-09T03:23:41;101271.25;;;27.38
64296;BMP280;51082;38.236;15.432;2022-09-09T03:24:43;101258.69;;;27.38
64296;BMP280;51082;38.236;15.432;2022-09-09T03:25:48;101267.00;;;27.37
64296;BMP280;51082;38.236;15.432;2022-09-09T03:26:50;101274.72;;;27.38
64296;BMP280;51082;38.236;15.432;2022-09-09T03:27:54;101264.53;;;27.40
64296;BMP280;51082;38.236;15.432;2022-09-09T03:28:57;101273.13;;;27.37
64296;BMP280;51082;38.236;15.432;2022-09-09T03:30:00;101272.03;;;27.38
64296;BMP280;51082;38.236;15.432;2022-09-09T03:31:05;101280.56;;;27.40
64296;BMP280;51082;38.236;15.432;2022-09-09T03:32:07;101273.34;;;27.41
64296;BMP280;51082;38.236;15.432;2022-09-09T03:33:11;101270.34;;;27.42
64296;BMP280;51082;38.236;15.432;2022-09-09T03:34:13;101276.78;;;27.41
64296;BMP280;51082;38.236;15.432;2022-09-09T03:35:16;101283.47;;;27.44
64296;BMP280;51082;38.236;15.432;2022-09-09T03:36:18;101281.06;;;27.42
64296;BMP280;51082;38.236;15.432;2022-09-09T03:37:21;101276.31;;;27.39
64296;BMP280;51082;38.236;15.432;2022-09-09T03:38:23;101279.00;;;27.39
64296;BMP280;51082;38.236;15.432;2022-09-09T03:39:26;101270.97;;;27.39
64296;BMP280;51082;38.236;15.432;2022-09-09T03:40:28;101280.66;;;27.35
64296;BMP280;51082;38.236;15.432;2022-09-09T03:41:32;101276.47;;;27.29
64296;BMP280;51082;38.236;15.432;2022-09-09T03:42:33;101272.94;;;27.33
64296;BMP280;51082;38.236;15.432;2022-09-09T03:43:37;101273.22;;;27.32
64296;BMP280;51082;38.236;15.432;2022-09-09T03:44:39;101274.91;;;27.28
64296;BMP280;51082;38.236;15.432;2022-09-09T03:45:46;101271.72;;;27.26
64296;BMP280;51082;38.236;15.432;2022-09-09T03:46:48;101277.34;;;27.24
64296;BMP280;51082;38.236;15.432;2022-09-09T03:47:51;101279.25;;;27.24
64296;BMP280;51082;38.236;15.432;2022-09-09T03:48:52;101280.88;;;27.25
64296;BMP280;51082;38.236;15.432;2022-09-09T03:49:55;101279.47;;;27.27
64296;BMP280;51082;38.236;15.432;2022-09-09T03:50:57;101272.31;;;27.23
64296;BMP280;51082;38.236;15.432;2022-09-09T03:52:02;101277.19;;;27.21
64296;BMP280;51082;38.236;15.432;2022-09-09T03:53:04;101281.22;;;27.18
64296;BMP280;51082;38.236;15.432;2022-09-09T03:54:07;101285.78;;;27.18
64296;BMP280;51082;38.236;15.432;2022-09-09T03:55:11;101282.00;;;27.19
64296;BMP280;51082;38.236;15.432;2022-09-09T03:56:14;101279.84;;;27.21
64296;BMP280;51082;38.236;15.432;2022-09-09T03:57:15;101278.84;;;27.17
64296;BMP280;51082;38.236;15.432;2022-09-09T03:58:18;101279.94;;;27.16
64296;BMP280;51082;38.236;15.432;2022-09-09T03:59:20;101275.56;;;27.20
64296;BMP280;51082;38.236;15.432;2022-09-09T04:00:24;101280.44;;;27.18
64296;BMP280;51082;38.236;15.432;2022-09-09T04:01:27;101272.88;;;27.20
64296;BMP280;51082;38.236;15.432;2022-09-09T04:02:30;101272.31;;;27.23
64296;BMP280;51082;38.236;15.432;2022-09-09T04:03:32;101276.56;;;27.24
64296;BMP280;51082;38.236;15.432;2022-09-09T04:04:35;101270.53;;;27.18
64296;BMP280;51082;38.236;15.432;2022-09-09T04:05:36;101273.00;;;27.15
64296;BMP280;51082;38.236;15.432;2022-09-09T04:06:43;101268.25;;;27.12
64296;BMP280;51082;38.236;15.432;2022-09-09T04:07:45;101268.91;;;27.04
64296;BMP280;51082;38.236;15.432;2022-09-09T04:08:47;101260.88;;;27.04
64296;BMP280;51082;38.236;15.432;2022-09-09T04:09:49;101260.81;;;27.09
64296;BMP280;51082;38.236;15.432;2022-09-09T04:10:53;101260.59;;;27.05
64296;BMP280;51082;38.236;15.432;2022-09-09T04:11:59;101262.47;;;27.05
64296;BMP280;51082;38.236;15.432;2022-09-09T04:13:02;101266.50;;;27.02
64296;BMP280;51082;38.236;15.432;2022-09-09T04:14:03;101269.47;;;27.01
64296;BMP280;51082;38.236;15.432;2022-09-09T04:15:07;101274.81;;;27.01
64296;BMP280;51082;38.236;15.432;2022-09-09T04:16:10;101272.47;;;26.99
64296;BMP280;51082;38.236;15.432;2022-09-09T04:17:15;101274.81;;;27.01
64296;BMP280;51082;38.236;15.432;2022-09-09T04:18:18;101273.25;;;27.00
64296;BMP280;51082;38.236;15.432;2022-09-09T04:19:21;101277.00;;;26.98
64296;BMP280;51082;38.236;15.432;2022-09-09T04:20:24;101278.88;;;26.98
64296;BMP280;51082;38.236;15.432;2022-09-09T04:21:26;101270.59;;;27.00
64296;BMP280;51082;38.236;15.432;2022-09-09T04:22:29;101273.72;;;27.02
64296;BMP280;51082;38.236;15.432;2022-09-09T04:23:30;101284.66;;;27.05
64296;BMP280;51082;38.236;15.432;2022-09-09T04:24:34;101280.38;;;27.04
64296;BMP280;51082;38.236;15.432;2022-09-09T04:25:37;101280.16;;;27.01
64296;BMP280;51082;38.236;15.432;2022-09-09T04:26:39;101281.75;;;27.02
64296;BMP280;51082;38.236;15.432;2022-09-09T04:27:42;101280.69;;;27.03
64296;BMP280;51082;38.236;15.432;2022-09-09T04:28:45;101287.91;;;27.02
64296;BMP280;51082;38.236;15.432;2022-09-09T04:29:48;101283.41;;;26.97
64296;BMP280;51082;38.236;15.432;2022-09-09T04:30:49;101282.94;;;26.95
64296;BMP280;51082;38.236;15.432;2022-09-09T04:31:53;101286.09;;;26.97
64296;BMP280;51082;38.236;15.432;2022-09-09T04:32:56;101289.06;;;26.96
64296;BMP280;51082;38.236;15.432;2022-09-09T04:33:59;101286.09;;;26.97
64296;BMP280;51082;38.236;15.432;2022-09-09T04:35:03;101294.63;;;27.00
64296;BMP280;51082;38.236;15.432;2022-09-09T04:36:07;101291.41;;;27.03
64296;BMP280;51082;38.236;15.432;2022-09-09T04:37:08;101289.28;;;27.00
64296;BMP280;51082;38.236;15.432;2022-09-09T04:38:11;101287.38;;;27.00
64296;BMP280;51082;38.236;15.432;2022-09-09T04:39:12;101292.44;;;27.02
64296;BMP280;51082;38.236;15.432;2022-09-09T04:40:15;101295.72;;;26.98
64296;BMP280;51082;38.236;15.432;2022-09-09T04:41:17;101296.19;;;27.01
64296;BMP280;51082;38.236;15.432;2022-09-09T04:42:20;101295.13;;;27.02
64296;BMP280;51082;38.236;15.432;2022-09-09T04:43:21;101300.75;;;27.00
64296;BMP280;51082;38.236;15.432;2022-09-09T04:44:26;101299.97;;;27.00
64296;BMP280;51082;38.236;15.432;2022-09-09T04:45:29;101301.53;;;27.01
64296;BMP280;51082;38.236;15.432;2022-09-09T04:46:31;101298.41;;;26.98
64296;BMP280;51082;38.236;15.432;2022-09-09T04:47:35;101302.13;;;26.97
64296;BMP280;51082;38.236;15.432;2022-09-09T04:48:38;101298.41;;;26.98
64296;BMP280;51082;38.236;15.432;2022-09-09T04:49:41;101294.41;;;26.96
64296;BMP280;51082;38.236;15.432;2022-09-09T04:50:43;101295.50;;;26.95
64296;BMP280;51082;38.236;15.432;2022-09-09T04:51:46;101303.19;;;26.96
64296;BMP280;51082;38.236;15.432;2022-09-09T04:52:51;101305.88;;;26.96
64296;BMP280;51082;38.236;15.432;2022-09-09T04:53:52;101306.31;;;27.04
64296;BMP280;51082;38.236;15.432;2022-09-09T04:54:55;101305.25;;;27.05
64296;BMP280;51082;38.236;15.432;2022-09-09T04:56:02;101307.91;;;27.05
64296;BMP280;51082;38.236;15.432;2022-09-09T04:57:05;101311.44;;;27.00
64296;BMP280;51082;38.236;15.432;2022-09-09T04:58:08;101308.78;;;27.00
64296;BMP280;51082;38.236;15.432;2022-09-09T04:59:10;101309.34;;;26.97
64296;BMP280;51082;38.236;15.432;2022-09-09T05:00:14;101309.94;;;26.94
64296;BMP280;51082;38.236;15.432;2022-09-09T05:01:17;101317.16;;;26.93
64296;BMP280;51082;38.236;15.432;2022-09-09T05:02:20;101311.75;;;26.98
64296;BMP280;51082;38.236;15.432;2022-09-09T05:03:22;101304.31;;;26.95
64296;BMP280;51082;38.236;15.432;2022-09-09T05:04:26;101300.16;;;26.89
64296;BMP280;51082;38.236;15.432;2022-09-09T05:05:28;101310.84;;;26.89
64296;BMP280;51082;38.236;15.432;2022-09-09T05:06:31;101304.88;;;26.92
64296;BMP280;51082;38.236;15.432;2022-09-09T05:07:33;101303.63;;;26.90
64296;BMP280;51082;38.236;15.432;2022-09-09T05:08:36;101307.63;;;26.87
64296;BMP280;51082;38.236;15.432;2022-09-09T05:09:39;101315.06;;;26.90
64296;BMP280;51082;38.236;15.432;2022-09-09T05:10:41;101305.88;;;26.96
64296;BMP280;51082;38.236;15.432;2022-09-09T05:11:44;101310.22;;;26.92
64296;BMP280;51082;38.236;15.432;2022-09-09T05:12:52;101307.44;;;27.03
64296;BMP280;51082;38.236;15.432;2022-09-09T05:13:54;101307.34;;;27.08
64296;BMP280;51082;38.236;15.432;2022-09-09T05:14:57;101303.13;;;27.02
64296;BMP280;51082;38.236;15.432;2022-09-09T05:15:59;101303.13;;;27.02
64296;BMP280;51082;38.236;15.432;2022-09-09T05:17:01;101306.88;;;27.01
64296;BMP280;51082;38.236;15.432;2022-09-09T05:18:03;101312.00;;;26.97
64296;BMP280;51082;38.236;15.432;2022-09-09T05:19:06;101311.22;;;26.96
64296;BMP280;51082;38.236;15.432;2022-09-09T05:20:10;101306.66;;;26.97
64296;BMP280;51082;38.236;15.432;2022-09-09T05:21:14;101310.59;;;27.05
64296;BMP280;51082;38.236;15.432;2022-09-09T05:22:19;101309.63;;;27.14
64296;BMP280;51082;38.236;15.432;2022-09-09T05:23:21;101314.19;;;27.14
64296;BMP280;51082;38.236;15.432;2022-09-09T05:24:24;101313.59;;;27.17
64296;BMP280;51082;38.236;15.432;2022-09-09T05:25:26;101315.25;;;27.13
64296;BMP280;51082;38.236;15.432;2022-09-09T05:26:29;101317.41;;;27.11
64296;BMP280;51082;38.236;15.432;2022-09-09T05:27:30;101310.84;;;27.22
64296;BMP280;51082;38.236;15.432;2022-09-09T05:28:34;101309.16;;;27.26
64296;BMP280;51082;38.236;15.432;2022-09-09T05:29:36;101310.66;;;27.32
64296;BMP280;51082;38.236;15.432;2022-09-09T05:30:39;101311.97;;;27.34
64296;BMP280;51082;38.236;15.432;2022-09-09T05:31:41;101306.81;;;27.38
64296;BMP280;51082;38.236;15.432;2022-09-09T05:32:43;101309.09;;;27.45
64296;BMP280;51082;38.236;15.432;2022-09-09T05:33:46;101314.66;;;27.48
64296;BMP280;51082;38.236;15.432;2022-09-09T05:34:50;101312.00;;;27.48
64296;BMP280;51082;38.236;15.432;2022-09-09T05:35:58;101310.50;;;27.56
64296;BMP280;51082;38.236;15.432;2022-09-09T05:37:01;101311.34;;;27.56
64296;BMP280;51082;38.236;15.432;2022-09-09T05:38:02;101316.84;;;27.60
64296;BMP280;51082;38.236;15.432;2022-09-09T05:39:05;101310.13;;;27.62
64296;BMP280;51082;38.236;15.432;2022-09-09T05:40:09;101309.03;;;27.63
64296;BMP280;51082;38.236;15.432;2022-09-09T05:41:13;101310.25;;;27.71
64296;BMP280;51082;38.236;15.432;2022-09-09T05:42:17;101306.66;;;27.76
64296;BMP280;51082;38.236;15.432;2022-09-09T05:43:18;101319.38;;;27.84
64296;BMP280;51082;38.236;15.432;2022-09-09T05:44:22;101317.16;;;27.86
64296;BMP280;51082;38.236;15.432;2022-09-09T05:45:26;101316.09;;;27.87
64296;BMP280;51082;38.236;15.432;2022-09-09T05:46:28;101314.41;;;27.91
64296;BMP280;51082;38.236;15.432;2022-09-09T05:47:30;101318.66;;;27.92
64296;BMP280;51082;38.236;15.432;2022-09-09T05:48:34;101327.69;;;27.96
64296;BMP280;51082;38.236;15.432;2022-09-09T05:49:36;101326.63;;;27.97
64296;BMP280;51082;38.236;15.432;2022-09-09T05:50:38;101323.31;;;28.00
64296;BMP280;51082;38.236;15.432;2022-09-09T05:51:42;101328.69;;;28.00
64296;BMP280;51082;38.236;15.432;2022-09-09T05:52:45;101326.88;;;28.09
64296;BMP280;51082;38.236;15.432;2022-09-09T05:53:47;101328.66;;;28.14
64296;BMP280;51082;38.236;15.432;2022-09-09T05:54:50;101325.59;;;28.20
64296;BMP280;51082;38.236;15.432;2022-09-09T05:55:59;101325.38;;;28.30
64296;BMP280;51082;38.236;15.432;2022-09-09T05:57:03;101319.09;;;28.35
64296;BMP280;51082;38.236;15.432;2022-09-09T05:58:07;101324.06;;;28.41
64296;BMP280;51082;38.236;15.432;2022-09-09T05:59:08;101319.00;;;28.40
64296;BMP280;51082;38.236;15.432;2022-09-09T06:00:12;101322.25;;;28.51
64296;BMP280;51082;38.236;15.432;2022-09-09T06:01:16;101323.13;;;28.60
64296;BMP280;51082;38.236;15.432;2022-09-09T06:02:19;101325.94;;;28.77
64296;BMP280;51082;38.236;15.432;2022-09-09T06:03:20;101327.09;;;28.84
64296;BMP280;51082;38.236;15.432;2022-09-09T06:04:24;101320.53;;;28.91
64296;BMP280;51082;38.236;15.432;2022-09-09T06:05:26;101324.84;;;29.00
64296;BMP280;51082;38.236;15.432;2022-09-09T06:06:31;101323.72;;;29.24